TimePST,TemperatureF,Dew PointF,Humidity,Sea Level PressureIn,VisibilityMPH,Wind Direction,Wind SpeedMPH,Gust SpeedMPH,PrecipitationIn,Events,Conditions,WindDirDegrees,DateUTC
12:53 AM,55.9,33.1,42,30.11,10.0,NE,4.6,-,N/A,,Overcast,50,2013-01-24 08:53:00
1:53 AM,55.9,34.0,44,30.09,10.0,Calm,Calm,-,N/A,,Mostly Cloudy,0,2013-01-24 09:53:00
2:53 AM,55.0,37.0,51,30.08,10.0,Calm,Calm,-,N/A,,Overcast,0,2013-01-24 10:53:00
3:53 AM,54.0,39.0,57,30.08,10.0,NW,3.5,-,N/A,,Overcast,310,2013-01-24 11:53:00
4:53 AM,54.0,37.9,55,30.08,10.0,Calm,Calm,-,N/A,,Overcast,0,2013-01-24 12:53:00
5:53 AM,54.0,39.9,59,30.10,10.0,NE,3.5,-,0.00,Rain,Light Rain,40,2013-01-24 13:53:00
6:53 AM,53.1,42.1,66,30.11,10.0,Calm,Calm,-,0.00,,Overcast,0,2013-01-24 14:53:00
7:53 AM,55.9,44.1,64,30.14,10.0,Calm,Calm,-,N/A,,Overcast,0,2013-01-24 15:53:00
8:53 AM,57.9,46.9,67,30.15,10.0,NE,4.6,-,0.00,Rain,Light Rain,40,2013-01-24 16:53:00
9:53 AM,55.9,51.1,84,30.17,10.0,NE,10.4,-,0.02,Rain,Light Rain,40,2013-01-24 17:53:00
10:53 AM,59.0,52.0,78,30.18,10.0,NNW,3.5,-,0.00,,Overcast,340,2013-01-24 18:53:00
11:53 AM,61.0,52.0,72,30.15,10.0,Calm,Calm,-,0.00,Rain,Light Rain,0,2013-01-24 19:53:00
12:53 PM,63.0,52.0,67,30.11,10.0,Calm,Calm,-,0.00,,Mostly Cloudy,0,2013-01-24 20:53:00
1:53 PM,64.9,52.0,63,30.10,10.0,Calm,Calm,-,N/A,,Partly Cloudy,0,2013-01-24 21:53:00
2:53 PM,64.9,54.0,68,30.09,10.0,West,6.9,-,N/A,,Scattered Clouds,270,2013-01-24 22:53:00
3:53 PM,64.0,52.0,65,30.10,10.0,NW,4.6,-,N/A,,Clear,320,2013-01-24 23:53:00
4:53 PM,60.1,52.0,75,30.10,10.0,WNW,5.8,-,N/A,,Clear,290,2013-01-25 00:53:00
5:53 PM,57.0,52.0,83,30.11,10.0,NNW,4.6,-,N/A,,Clear,330,2013-01-25 01:53:00
6:53 PM,55.9,51.1,84,30.12,10.0,Calm,Calm,-,N/A,,Clear,0,2013-01-25 02:53:00
7:53 PM,57.0,51.1,81,30.11,10.0,Calm,Calm,-,N/A,,Overcast,0,2013-01-25 03:53:00
8:53 PM,55.0,53.1,93,30.12,10.0,West,4.6,-,0.00,,Overcast,280,2013-01-25 04:53:00
9:53 PM,55.0,53.1,93,30.12,10.0,Calm,Calm,-,0.00,Rain,Light Rain,0,2013-01-25 05:53:00
10:53 PM,61.0,48.9,64,30.10,10.0,ENE,8.1,-,0.00,,Mostly Cloudy,60,2013-01-25 06:53:00
11:53 PM,62.1,48.9,62,30.09,10.0,ENE,5.8,-,N/A,,Overcast,70,2013-01-25 07:53:00